createdAt,value
2023-01-03T00:01:15.391Z,2.83
2023-01-03T00:03:42.325Z,3.53
2023-01-03T00:06:16.201Z,2.60
2023-01-03T00:08:44.502Z,4.20
2023-01-03T00:11:12.889Z,3.57
2023-01-03T00:13:39.884Z,3.70
2023-01-03T00:16:15.408Z,2.80
2023-01-03T00:18:42.423Z,3.43
2023-01-03T00:21:09.362Z,3.07
2023-01-03T00:23:36.324Z,3.17
2023-01-03T00:26:10.654Z,3.07
2023-01-03T00:28:37.759Z,2.73
2023-01-03T00:31:07.034Z,3.50
2023-01-03T00:33:34.084Z,3.80
2023-01-03T00:36:02.059Z,4.13
2023-01-03T00:38:28.956Z,3.73
2023-01-03T00:41:02.950Z,3.00
2023-01-03T00:43:31.152Z,3.13
2023-01-03T00:45:58.127Z,3.50
2023-01-03T00:48:25.347Z,4.67
2023-01-03T00:50:52.215Z,3.40
2023-01-03T00:53:19.135Z,3.60
2023-01-03T00:55:46.296Z,2.30
2023-01-03T00:58:15.824Z,3.07
2023-01-03T01:00:43.998Z,2.70
2023-01-03T01:03:10.990Z,2.87
2023-01-03T01:05:38.044Z,3.97
2023-01-03T01:08:05.209Z,3.60
2023-01-03T01:10:32.038Z,3.40
2023-01-03T01:12:58.865Z,3.00
2023-01-03T01:15:25.657Z,2.73
2023-01-03T01:17:53.894Z,2.40
2023-01-03T01:20:20.847Z,2.83
2023-01-03T01:22:47.710Z,6.10
2023-01-03T01:25:14.575Z,3.20
2023-01-03T01:27:41.380Z,4.70
2023-01-03T01:30:08.952Z,2.83
2023-01-03T01:32:35.806Z,2.17
2023-01-03T01:35:04.363Z,3.37
2023-01-03T01:37:31.892Z,2.70
2023-01-03T01:39:58.773Z,3.37
2023-01-03T01:42:43.963Z,3.00
2023-01-03T01:45:14.531Z,3.50
2023-01-03T01:47:51.147Z,3.33
2023-01-03T01:50:24.839Z,3.70
2023-01-03T01:52:57.603Z,3.20
2023-01-03T01:55:28.571Z,4.07
2023-01-03T01:57:55.584Z,4.10
2023-01-03T02:00:22.663Z,3.13
2023-01-03T02:02:52.850Z,3.90
2023-01-03T02:05:22.138Z,2.87
2023-01-03T02:07:50.047Z,2.40
2023-01-03T02:10:17.814Z,3.13
2023-01-03T02:13:12.435Z,2.87
2023-01-03T02:16:03.784Z,4.10
2023-01-03T02:18:42.995Z,5.07
2023-01-03T02:21:51.829Z,4.23
2023-01-03T02:25:03.387Z,3.27
2023-01-03T02:27:54.780Z,1.93
2023-01-03T02:30:37.389Z,2.97
2023-01-03T02:33:18.081Z,5.87
2023-01-03T02:35:54.922Z,4.23
2023-01-03T02:38:29.089Z,4.23
2023-01-03T02:41:03.000Z,5.43
2023-01-03T02:43:36.099Z,3.07
2023-01-03T02:46:08.420Z,2.77
2023-01-03T02:48:45.855Z,3.80
2023-01-03T02:51:21.317Z,2.60
2023-01-03T02:53:50.511Z,4.63
2023-01-03T02:56:22.704Z,3.50
2023-01-03T02:58:58.406Z,4.63
2023-01-03T03:01:29.931Z,4.17
2023-01-03T03:03:58.619Z,2.27
2023-01-03T03:06:32.740Z,2.33
2023-01-03T03:08:59.643Z,3.23
2023-01-03T03:11:47.879Z,3.37
2023-01-03T03:14:22.374Z,4.13
2023-01-03T03:16:53.816Z,3.37
2023-01-03T03:19:51.504Z,3.33
2023-01-03T03:22:45.749Z,2.63
2023-01-03T03:25:16.895Z,4.13
2023-01-03T03:28:07.780Z,3.50
2023-01-03T03:30:39.363Z,4.07
2023-01-03T03:33:09.474Z,2.70
2023-01-03T03:35:43.915Z,3.13
2023-01-03T03:38:14.154Z,4.83
2023-01-03T03:41:10.920Z,4.20
2023-01-03T03:44:03.266Z,3.50
2023-01-03T03:46:37.969Z,4.97
2023-01-03T03:49:30.133Z,4.30
2023-01-03T03:52:00.486Z,5.20
2023-01-03T03:54:29.853Z,3.43
2023-01-03T03:57:02.766Z,4.80
2023-01-03T03:59:32.210Z,5.83
2023-01-03T04:02:01.093Z,5.47
2023-01-03T04:04:34.540Z,3.93
2023-01-03T04:07:02.424Z,4.73
2023-01-03T04:09:29.781Z,6.37
2023-01-03T04:11:56.633Z,5.00
2023-01-03T04:14:23.512Z,7.23
2023-01-03T04:16:50.441Z,4.57
2023-01-03T04:19:17.476Z,5.27
2023-01-03T04:21:45.671Z,6.13
2023-01-03T04:24:12.597Z,5.83
2023-01-03T04:26:39.449Z,5.47
2023-01-03T04:29:06.311Z,5.10
2023-01-03T04:31:33.284Z,4.60
2023-01-03T04:34:00.133Z,5.23
2023-01-03T04:36:26.976Z,3.43
2023-01-03T04:38:55.176Z,4.43
2023-01-03T04:41:22.193Z,5.83
2023-01-03T04:44:07.196Z,5.63
2023-01-03T04:46:36.236Z,7.27
2023-01-03T04:49:04.582Z,5.67
2023-01-03T04:51:31.739Z,4.13
2023-01-03T04:54:00.348Z,3.03
2023-01-03T04:56:28.413Z,2.23
2023-01-03T04:58:55.438Z,3.80
2023-01-03T05:01:22.859Z,4.80
2023-01-03T05:03:50.450Z,3.10
2023-01-03T05:06:18.171Z,3.53
2023-01-03T05:08:46.665Z,3.97
2023-01-03T05:11:14.905Z,3.50
2023-01-03T05:13:41.859Z,2.00
2023-01-03T05:16:12.691Z,2.03
2023-01-03T05:18:39.601Z,3.37
2023-01-03T05:21:26.367Z,2.17
2023-01-03T05:24:11.946Z,3.10
2023-01-03T05:26:42.164Z,2.37
2023-01-03T05:29:09.932Z,2.37
2023-01-03T05:31:36.943Z,3.57
2023-01-03T05:34:04.145Z,3.77
2023-01-03T05:36:31.055Z,2.73
2023-01-03T05:38:58.159Z,1.60
2023-01-03T05:41:48.311Z,2.33
2023-01-03T05:44:16.696Z,2.90
2023-01-03T05:46:43.971Z,1.77
2023-01-03T05:49:11.030Z,1.20
2023-01-03T05:51:37.887Z,2.00
2023-01-03T05:54:05.020Z,6.47
2023-01-03T05:56:32.336Z,6.53
2023-01-03T05:58:59.513Z,4.60
2023-01-03T06:01:28.782Z,3.77
2023-01-03T06:03:56.060Z,4.33
2023-01-03T06:06:23.188Z,4.67
2023-01-03T06:08:50.119Z,8.20
2023-01-03T06:11:17.805Z,5.33
2023-01-03T06:13:45.056Z,3.40
2023-01-03T06:16:31.941Z,3.10
2023-01-03T06:19:01.124Z,3.90
2023-01-03T06:21:28.525Z,4.17
2023-01-03T06:23:55.447Z,2.40
2023-01-03T06:26:24.098Z,2.77
2023-01-03T06:28:51.593Z,2.93
2023-01-03T06:31:18.879Z,2.67
2023-01-03T06:33:46.170Z,2.97
2023-01-03T06:36:16.281Z,5.87
2023-01-03T06:38:43.199Z,3.87
2023-01-03T06:41:10.799Z,3.63
2023-01-03T06:43:37.612Z,3.03
2023-01-03T06:46:23.732Z,3.33
2023-01-03T06:49:22.976Z,3.17
2023-01-03T06:52:10.044Z,4.73
2023-01-03T06:54:38.156Z,6.50
2023-01-03T06:57:05.468Z,10.17
2023-01-03T06:59:32.273Z,11.67
2023-01-03T07:01:59.295Z,6.23
2023-01-03T07:04:26.762Z,8.17
2023-01-03T07:06:55.110Z,10.30
2023-01-03T07:09:21.948Z,13.53
2023-01-03T07:11:48.832Z,12.27
2023-01-03T07:14:15.739Z,15.13
2023-01-03T07:16:44.123Z,12.87
2023-01-03T07:19:13.561Z,16.83
2023-01-03T07:21:40.760Z,13.60
2023-01-03T07:24:12.085Z,14.60
2023-01-03T07:26:39.173Z,15.30
2023-01-03T07:29:08.049Z,18.23
2023-01-03T07:31:38.476Z,19.03
2023-01-03T07:34:05.365Z,20.53
2023-01-03T07:36:32.219Z,22.73
2023-01-03T07:38:59.014Z,18.33
2023-01-03T07:41:47.214Z,19.37
2023-01-03T07:44:14.077Z,16.03
2023-01-03T07:46:40.932Z,17.97
2023-01-03T07:49:11.429Z,15.23
2023-01-03T07:51:38.997Z,13.40
2023-01-03T07:54:07.313Z,13.87
2023-01-03T07:56:35.681Z,13.40
2023-01-03T07:59:02.663Z,14.47
2023-01-03T08:01:30.681Z,17.87
2023-01-03T08:03:57.838Z,20.77
2023-01-03T08:06:25.506Z,19.47
2023-01-03T08:09:11.680Z,17.90
2023-01-03T08:11:58.983Z,20.20
2023-01-03T08:14:27.153Z,20.63
2023-01-03T08:16:54.788Z,18.77
2023-01-03T08:19:21.771Z,20.53
2023-01-03T08:21:48.595Z,18.80
2023-01-03T08:24:15.502Z,14.37
2023-01-03T08:26:43.628Z,14.97
2023-01-03T08:29:10.564Z,18.80
2023-01-03T08:31:41.998Z,18.53
2023-01-03T08:34:16.849Z,14.20
2023-01-03T08:36:48.711Z,14.87
2023-01-03T08:39:20.433Z,15.87
2023-01-03T08:41:55.239Z,12.57
2023-01-03T08:44:21.998Z,12.77
2023-01-03T08:46:51.670Z,12.90
2023-01-03T08:49:19.246Z,13.70
2023-01-03T08:51:46.395Z,13.60
2023-01-03T08:54:13.411Z,10.70
2023-01-03T08:56:40.298Z,10.30
2023-01-03T08:59:08.501Z,10.27
2023-01-03T09:01:35.608Z,12.50
2023-01-03T09:04:02.701Z,11.13
2023-01-03T09:06:29.666Z,10.13
2023-01-03T09:08:56.515Z,8.80
2023-01-03T09:11:23.404Z,10.17
2023-01-03T09:13:50.266Z,10.37
2023-01-03T09:16:18.500Z,9.07
2023-01-03T09:18:45.386Z,8.73
2023-01-03T09:21:12.241Z,8.90
2023-01-03T09:23:39.175Z,7.73
2023-01-03T09:26:06.662Z,8.37
2023-01-03T09:28:33.616Z,7.20
2023-01-03T09:31:00.536Z,6.23
2023-01-03T09:33:28.748Z,7.10
2023-01-03T09:35:56.052Z,5.63
2023-01-03T09:38:23.541Z,5.67
2023-01-03T09:40:58.396Z,6.20
2023-01-03T09:43:31.883Z,6.10
2023-01-03T09:46:01.578Z,5.07
2023-01-03T09:48:33.945Z,7.17
2023-01-03T09:54:06.646Z,6.00
2023-01-03T09:56:52.012Z,5.63
2023-01-03T09:59:37.315Z,6.57
2023-01-03T10:02:42.541Z,6.10
2023-01-03T10:05:27.084Z,5.90
2023-01-03T10:08:26.041Z,8.80
2023-01-03T10:10:59.582Z,7.27
2023-01-03T10:13:37.457Z,6.83
2023-01-03T10:16:11.644Z,5.87
2023-01-03T10:18:54.050Z,7.53
2023-01-03T10:21:31.537Z,6.33
2023-01-03T10:23:59.318Z,7.60
2023-01-03T10:26:32.587Z,6.57
2023-01-03T10:29:00.818Z,6.73
2023-01-03T10:31:39.972Z,6.20
2023-01-03T10:34:07.583Z,5.63
2023-01-03T10:36:35.767Z,5.00
2023-01-03T10:39:04.014Z,7.80
2023-01-03T10:41:42.321Z,5.00
2023-01-03T10:44:22.315Z,6.67
2023-01-03T10:46:53.340Z,6.40
2023-01-03T10:49:30.466Z,7.37
2023-01-03T10:52:02.679Z,6.17
2023-01-03T10:54:35.406Z,7.17
2023-01-03T10:57:02.241Z,7.23
2023-01-03T10:59:30.681Z,10.47
2023-01-03T11:02:00.678Z,8.67
2023-01-03T11:04:28.453Z,10.63
2023-01-03T11:07:04.488Z,7.30
2023-01-03T11:09:44.451Z,8.67
2023-01-03T11:12:21.473Z,11.50
2023-01-03T11:14:52.874Z,11.90
2023-01-03T11:17:25.030Z,8.73
2023-01-03T11:19:53.308Z,7.63
2023-01-03T11:22:40.586Z,8.43
2023-01-03T11:25:24.855Z,10.20
2023-01-03T11:28:18.392Z,10.70
2023-01-03T11:30:54.762Z,9.20
2023-01-03T11:33:34.727Z,9.23
2023-01-03T11:36:23.837Z,10.03
2023-01-03T11:38:59.978Z,10.50
2023-01-03T11:41:39.331Z,9.80
2023-01-03T11:44:39.832Z,11.47
2023-01-03T11:47:19.230Z,10.00
2023-01-03T11:49:56.508Z,12.37
2023-01-03T11:52:29.854Z,10.77
2023-01-03T11:55:30.485Z,11.53
2023-01-03T11:58:09.393Z,11.00
2023-01-03T12:00:43.193Z,11.13
2023-01-03T12:03:18.260Z,13.90
2023-01-03T12:05:51.390Z,13.43
2023-01-03T12:08:51.570Z,9.63
2023-01-03T12:11:55.345Z,14.10
2023-01-03T12:14:25.388Z,15.40
2023-01-03T12:16:56.424Z,12.43
2023-01-03T12:19:31.556Z,12.57
2023-01-03T12:22:04.795Z,11.80
2023-01-03T12:24:38.288Z,12.83
2023-01-03T12:27:14.668Z,13.27
2023-01-03T12:29:50.876Z,13.63
2023-01-03T12:32:27.613Z,13.90
2023-01-03T12:35:16.161Z,14.50
2023-01-03T12:37:45.879Z,12.33
2023-01-03T12:40:23.090Z,13.87
2023-01-03T12:43:00.046Z,13.93
2023-01-03T12:45:41.427Z,13.63
2023-01-03T12:48:35.101Z,12.00
2023-01-03T12:51:01.903Z,11.53
2023-01-03T12:53:35.169Z,9.47
2023-01-03T12:56:33.797Z,14.30
2023-01-03T12:59:09.357Z,10.50
2023-01-03T13:01:39.757Z,11.50
2023-01-03T13:04:19.231Z,10.47
2023-01-03T13:06:54.630Z,12.13
2023-01-03T13:09:31.798Z,11.70
2023-01-03T13:12:03.624Z,12.83
2023-01-03T13:14:53.090Z,10.43
2023-01-03T13:17:21.386Z,10.43
2023-01-03T13:19:54.521Z,11.47
2023-01-03T13:22:44.513Z,8.60
2023-01-03T13:25:33.338Z,11.10
2023-01-03T13:28:04.634Z,9.57
2023-01-03T13:30:34.956Z,11.67
2023-01-03T13:33:16.738Z,11.47
2023-01-03T13:36:01.621Z,11.57
2023-01-03T13:38:31.315Z,12.97
2023-01-03T13:41:18.012Z,11.30
2023-01-03T13:43:48.567Z,12.40
2023-01-03T13:46:22.659Z,8.80
2023-01-03T13:48:56.498Z,7.70
2023-01-03T13:51:34.654Z,13.80
2023-01-03T13:54:05.183Z,12.23
2023-01-03T13:56:53.023Z,8.93
2023-01-03T13:59:31.148Z,8.43
2023-01-03T14:02:22.416Z,10.30
2023-01-03T14:05:07.527Z,10.87
2023-01-03T14:07:53.155Z,8.40
2023-01-03T14:10:40.031Z,10.73
2023-01-03T14:13:21.981Z,9.53
2023-01-03T14:16:00.391Z,9.23
2023-01-03T14:18:30.174Z,11.93
2023-01-03T14:20:59.313Z,10.77
2023-01-03T14:26:17.242Z,10.27
2023-01-03T14:28:49.256Z,15.27
2023-01-03T14:31:20.011Z,7.20
2023-01-03T14:33:54.170Z,9.23
2023-01-03T14:36:21.098Z,9.03
2023-01-03T14:38:50.636Z,7.67
2023-01-03T14:41:30.203Z,8.37
2023-01-03T14:44:02.123Z,8.53
2023-01-03T14:46:30.489Z,8.93
2023-01-03T14:49:03.763Z,13.93
2023-01-03T14:51:32.957Z,7.47
2023-01-03T14:54:00.609Z,6.20
2023-01-03T14:56:28.655Z,8.30
2023-01-03T14:58:56.253Z,10.13
2023-01-03T15:01:24.060Z,9.00
2023-01-03T15:03:53.175Z,7.97
2023-01-03T15:06:24.030Z,9.80
2023-01-03T15:08:53.306Z,9.83
2023-01-03T15:11:27.032Z,8.00
2023-01-03T15:13:57.584Z,4.90
2023-01-03T15:16:29.432Z,11.10
2023-01-03T15:19:02.294Z,7.77
2023-01-03T15:21:30.782Z,9.13
2023-01-03T15:23:58.269Z,9.07
2023-01-03T15:26:36.206Z,10.43
2023-01-03T15:29:09.069Z,8.77
2023-01-03T15:31:38.599Z,11.03
2023-01-03T15:34:14.516Z,9.87
2023-01-03T15:36:46.567Z,9.07
2023-01-03T15:39:18.505Z,16.10
2023-01-03T15:42:34.986Z,9.33
2023-01-03T15:44:51.162Z,9.80
2023-01-03T15:47:19.808Z,10.20
2023-01-03T15:49:49.558Z,13.97
2023-01-03T15:52:17.719Z,8.83
2023-01-03T15:54:45.358Z,11.83
2023-01-03T15:57:15.160Z,8.07
2023-01-03T15:59:43.631Z,8.03
2023-01-03T16:02:15.598Z,7.73
2023-01-03T16:04:43.197Z,7.90
2023-01-03T16:07:11.013Z,7.60
2023-01-03T16:09:39.510Z,6.60
2023-01-03T16:12:11.421Z,5.13
2023-01-03T16:14:41.129Z,10.07
2023-01-03T16:17:11.614Z,6.77
2023-01-03T16:19:38.620Z,10.67
2023-01-03T16:24:54.385Z,13.73
2023-01-03T16:27:25.401Z,15.87
2023-01-03T16:29:52.570Z,12.07
2023-01-03T16:32:21.990Z,11.37
2023-01-03T16:34:50.093Z,10.80
2023-01-03T16:37:17.106Z,8.73
2023-01-03T16:39:48.046Z,9.93
2023-01-03T16:42:16.796Z,6.60
2023-01-03T16:44:46.678Z,5.63
2023-01-03T16:47:16.645Z,7.27
2023-01-03T16:49:45.345Z,6.77
2023-01-03T16:52:16.004Z,10.37
2023-01-03T16:54:43.759Z,8.00
2023-01-03T16:57:17.839Z,7.27
2023-01-03T16:59:45.094Z,12.67
2023-01-03T17:02:12.144Z,11.27
2023-01-03T17:04:39.316Z,10.97
2023-01-03T17:07:06.411Z,9.33
2023-01-03T17:09:40.223Z,8.03
2023-01-03T17:12:07.059Z,7.13
2023-01-03T17:14:36.935Z,8.23
2023-01-03T17:17:03.930Z,10.70
2023-01-03T17:22:20.706Z,12.73
2023-01-03T17:24:48.705Z,11.67
2023-01-03T17:27:18.240Z,15.33
2023-01-03T17:29:47.080Z,12.37
2023-01-03T17:32:17.448Z,14.57
2023-01-03T17:34:44.455Z,12.63
2023-01-03T17:37:16.082Z,14.80
2023-01-03T17:39:43.385Z,15.57
2023-01-03T17:42:16.104Z,17.87
2023-01-03T17:44:44.512Z,16.90
2023-01-03T17:47:40.147Z,13.97
2023-01-03T17:50:08.752Z,13.70
2023-01-03T17:52:37.477Z,12.27
2023-01-03T17:55:16.281Z,11.43
2023-01-03T17:57:43.186Z,12.57
2023-01-03T18:00:16.552Z,12.17
2023-01-03T18:02:45.156Z,15.10
2023-01-03T18:05:17.585Z,11.07
2023-01-03T18:07:48.767Z,11.93
2023-01-03T18:10:17.484Z,14.07
2023-01-03T18:12:44.667Z,14.47
2023-01-03T18:15:16.299Z,14.57
2023-01-03T18:17:45.453Z,11.73
2023-01-03T18:20:14.040Z,12.63
2023-01-03T18:22:41.432Z,13.00
2023-01-03T18:25:21.739Z,13.13
2023-01-03T18:27:53.215Z,14.50
2023-01-03T18:30:20.728Z,13.83
2023-01-03T18:32:48.989Z,17.00
2023-01-03T18:35:24.260Z,14.20
2023-01-03T18:37:55.706Z,13.73
2023-01-03T18:40:28.627Z,13.00
2023-01-03T18:43:10.732Z,17.23
2023-01-03T18:45:38.852Z,14.83
2023-01-03T18:48:07.676Z,12.83
2023-01-03T18:50:34.655Z,13.60
2023-01-03T18:53:04.373Z,13.03
2023-01-03T18:55:33.682Z,15.57
2023-01-03T18:58:06.723Z,10.67
2023-01-03T19:00:33.632Z,10.20
2023-01-03T19:03:00.985Z,12.13
2023-01-03T19:05:29.302Z,12.00
2023-01-03T19:07:56.392Z,12.63
2023-01-03T19:10:25.435Z,13.00
2023-01-03T19:12:55.394Z,14.63
2023-01-03T19:15:25.515Z,12.93
2023-01-03T19:17:52.507Z,10.80
2023-01-03T19:20:26.341Z,12.63
2023-01-03T19:22:55.865Z,13.50
2023-01-03T19:25:26.212Z,10.47
2023-01-03T19:27:56.067Z,12.23
2023-01-03T19:30:37.003Z,15.93
2023-01-03T19:33:05.649Z,19.10
2023-01-03T19:35:32.529Z,12.93
2023-01-03T19:38:00.844Z,12.60
2023-01-03T19:40:31.889Z,14.70
2023-01-03T19:42:59.811Z,14.63
2023-01-03T19:45:28.538Z,12.50
2023-01-03T19:47:56.151Z,12.80
2023-01-03T19:50:24.603Z,14.17
2023-01-03T19:52:53.200Z,13.67
2023-01-03T19:55:25.033Z,11.13
2023-01-03T19:57:51.979Z,11.10
2023-01-03T20:00:22.024Z,22.50
2023-01-03T20:02:52.575Z,11.67
2023-01-03T20:05:21.636Z,13.63
2023-01-03T20:07:49.701Z,11.93
2023-01-03T20:10:19.058Z,13.93
2023-01-03T20:12:48.173Z,9.77
2023-01-03T20:15:21.334Z,12.47
2023-01-03T20:17:48.184Z,11.97
2023-01-03T20:20:15.069Z,10.67
2023-01-03T20:25:31.880Z,13.40
2023-01-03T20:28:01.107Z,12.00
2023-01-03T20:30:30.181Z,11.97
2023-01-03T20:32:57.512Z,13.53
2023-01-03T20:36:07.543Z,11.63
2023-01-03T20:38:16.781Z,13.17
2023-01-03T20:40:43.653Z,14.60
2023-01-03T20:43:14.389Z,10.53
2023-01-03T20:45:41.564Z,12.40
2023-01-03T20:48:12.949Z,11.73
2023-01-03T20:50:39.814Z,10.60
2023-01-03T20:53:06.665Z,10.70
2023-01-03T20:55:33.677Z,12.70
2023-01-03T20:58:00.485Z,17.20
2023-01-03T21:00:32.021Z,12.67
2023-01-03T21:02:59.195Z,17.47
2023-01-03T21:05:26.454Z,12.87
2023-01-03T21:08:12.053Z,12.57
2023-01-03T21:10:40.867Z,12.00
2023-01-03T21:13:08.944Z,10.40
2023-01-03T21:15:37.865Z,12.37
2023-01-03T21:18:06.080Z,16.90
2023-01-03T21:20:33.752Z,56.23
2023-01-03T21:23:00.693Z,23.10
2023-01-03T21:25:30.419Z,16.17
2023-01-03T21:27:57.463Z,12.50
2023-01-03T21:30:25.714Z,13.53
2023-01-03T21:32:54.637Z,14.23
2023-01-03T21:35:23.454Z,12.53
2023-01-03T21:37:52.743Z,12.70
2023-01-03T21:40:21.935Z,13.00
2023-01-03T21:43:05.943Z,12.30
2023-01-03T21:45:35.279Z,15.23
2023-01-03T21:48:05.426Z,12.93
2023-01-03T21:50:33.226Z,12.93
2023-01-03T21:53:00.118Z,14.57
2023-01-03T21:55:27.064Z,13.80
2023-01-03T21:57:54.053Z,14.13
2023-01-03T22:00:21.026Z,16.60
2023-01-03T22:03:20.166Z,11.80
2023-01-03T22:05:48.385Z,13.10
2023-01-03T22:08:15.290Z,11.87
2023-01-03T22:10:42.400Z,12.17
2023-01-03T22:13:10.561Z,15.00
2023-01-03T22:15:38.920Z,11.07
2023-01-03T22:18:08.933Z,16.13
2023-01-03T22:20:38.860Z,12.03
2023-01-03T22:23:08.374Z,15.73
2023-01-03T22:25:35.334Z,12.63
2023-01-03T22:28:02.245Z,11.20
2023-01-03T22:30:29.171Z,12.27
2023-01-03T22:32:57.116Z,11.77
2023-01-03T22:35:24.457Z,10.33
2023-01-03T22:37:51.426Z,13.17
2023-01-03T22:40:19.758Z,9.27
2023-01-03T22:42:46.548Z,9.93
2023-01-03T22:45:15.474Z,10.67
2023-01-03T22:47:42.520Z,13.37
2023-01-03T22:50:10.463Z,11.03
2023-01-03T22:52:39.559Z,8.40
2023-01-03T22:55:07.416Z,11.20
2023-01-03T22:57:35.725Z,10.50
2023-01-03T23:00:04.473Z,11.20
2023-01-03T23:02:40.874Z,10.60
2023-01-03T23:05:09.353Z,11.40
2023-01-03T23:07:36.206Z,9.97
2023-01-03T23:10:03.189Z,9.17
2023-01-03T23:12:48.490Z,9.37
2023-01-03T23:15:16.921Z,11.87
2023-01-03T23:17:58.841Z,11.20
2023-01-03T23:20:27.795Z,11.20
2023-01-03T23:22:59.595Z,8.87
2023-01-03T23:25:27.158Z,10.97
2023-01-03T23:27:53.976Z,11.13
2023-01-03T23:30:22.331Z,10.23
2023-01-03T23:32:49.154Z,11.57
2023-01-03T23:35:18.451Z,9.70
2023-01-03T23:37:47.176Z,7.67
2023-01-03T23:40:14.207Z,10.07
2023-01-03T23:42:41.076Z,10.83
2023-01-03T23:45:08.501Z,9.53
2023-01-03T23:47:36.968Z,10.23
2023-01-03T23:50:04.206Z,8.17
2023-01-03T23:52:33.414Z,6.73
2023-01-03T23:55:05.104Z,10.53
2023-01-03T23:57:35.580Z,12.03
